sensor_id;sensor_type;location;lat;lon;timestamp;P1;durP1;ratioP1;P2;durP2;ratioP2
37971;SDS011;23794;48.234;8.344;2023-04-25T00:02:13;6.07;;;1.75;;
37971;SDS011;23794;48.234;8.344;2023-04-25T00:04:42;5.25;;;2.17;;
37971;SDS011;23794;48.234;8.344;2023-04-25T00:07:10;4.82;;;2.13;;
37971;SDS011;23794;48.234;8.344;2023-04-25T00:09:36;3.72;;;2.40;;
37971;SDS011;23794;48.234;8.344;2023-04-25T00:12:03;3.40;;;2.20;;
37971;SDS011;23794;48.234;8.344;2023-04-25T00:14:29;10.10;;;2.38;;
37971;SDS011;23794;48.234;8.344;2023-04-25T00:16:56;5.75;;;1.95;;
37971;SDS011;23794;48.234;8.344;2023-04-25T00:19:24;4.97;;;2.30;;
37971;SDS011;23794;48.234;8.344;2023-04-25T00:21:50;6.32;;;2.53;;
37971;SDS011;23794;48.234;8.344;2023-04-25T00:24:17;6.20;;;2.47;;
37971;SDS011;23794;48.234;8.344;2023-04-25T00:26:43;4.32;;;2.13;;
37971;SDS011;23794;48.234;8.344;2023-04-25T00:29:10;5.75;;;1.95;;
37971;SDS011;23794;48.234;8.344;2023-04-25T00:31:37;3.75;;;2.40;;
37971;SDS011;23794;48.234;8.344;2023-04-25T00:34:05;4.45;;;2.38;;
37971;SDS011;23794;48.234;8.344;2023-04-25T00:36:34;6.80;;;3.10;;
37971;SDS011;23794;48.234;8.344;2023-04-25T00:39:01;5.47;;;2.60;;
37971;SDS011;23794;48.234;8.344;2023-04-25T00:41:27;5.55;;;2.42;;
37971;SDS011;23794;48.234;8.344;2023-04-25T00:43:56;7.65;;;3.33;;
37971;SDS011;23794;48.234;8.344;2023-04-25T00:46:23;8.13;;;2.90;;
37971;SDS011;23794;48.234;8.344;2023-04-25T00:48:50;4.97;;;3.28;;
37971;SDS011;23794;48.234;8.344;2023-04-25T00:51:19;4.38;;;2.42;;
37971;SDS011;23794;48.234;8.344;2023-04-25T00:53:47;6.00;;;2.97;;
37971;SDS011;23794;48.234;8.344;2023-04-25T00:56:18;7.60;;;3.13;;
37971;SDS011;23794;48.234;8.344;2023-04-25T00:58:46;5.45;;;2.63;;
37971;SDS011;23794;48.234;8.344;2023-04-25T01:01:13;9.98;;;2.75;;
37971;SDS011;23794;48.234;8.344;2023-04-25T01:03:40;6.22;;;3.42;;
37971;SDS011;23794;48.234;8.344;2023-04-25T01:06:08;7.05;;;3.35;;
37971;SDS011;23794;48.234;8.344;2023-04-25T01:08:37;5.38;;;3.10;;
37971;SDS011;23794;48.234;8.344;2023-04-25T01:11:04;4.75;;;2.95;;
37971;SDS011;23794;48.234;8.344;2023-04-25T01:13:32;7.22;;;2.75;;
37971;SDS011;23794;48.234;8.344;2023-04-25T01:15:59;8.50;;;2.80;;
37971;SDS011;23794;48.234;8.344;2023-04-25T01:18:26;3.92;;;2.75;;
37971;SDS011;23794;48.234;8.344;2023-04-25T01:20:53;8.57;;;3.55;;
37971;SDS011;23794;48.234;8.344;2023-04-25T01:23:21;5.47;;;2.70;;
37971;SDS011;23794;48.234;8.344;2023-04-25T01:25:49;8.85;;;2.97;;
37971;SDS011;23794;48.234;8.344;2023-04-25T01:28:16;5.85;;;3.45;;
37971;SDS011;23794;48.234;8.344;2023-04-25T01:30:42;13.15;;;5.72;;
37971;SDS011;23794;48.234;8.344;2023-04-25T01:33:09;12.55;;;5.53;;
37971;SDS011;23794;48.234;8.344;2023-04-25T01:35:37;6.80;;;3.92;;
37971;SDS011;23794;48.234;8.344;2023-04-25T01:38:03;11.70;;;4.72;;
37971;SDS011;23794;48.234;8.344;2023-04-25T01:40:31;8.13;;;3.83;;
37971;SDS011;23794;48.234;8.344;2023-04-25T01:43:00;8.13;;;3.45;;
37971;SDS011;23794;48.234;8.344;2023-04-25T01:45:27;6.32;;;3.45;;
37971;SDS011;23794;48.234;8.344;2023-04-25T01:47:54;7.00;;;3.75;;
37971;SDS011;23794;48.234;8.344;2023-04-25T01:50:20;7.15;;;2.63;;
37971;SDS011;23794;48.234;8.344;2023-04-25T01:52:49;7.78;;;3.42;;
37971;SDS011;23794;48.234;8.344;2023-04-25T01:55:16;6.63;;;3.72;;
37971;SDS011;23794;48.234;8.344;2023-04-25T01:57:52;7.55;;;4.07;;
37971;SDS011;23794;48.234;8.344;2023-04-25T02:00:25;6.25;;;3.78;;
37971;SDS011;23794;48.234;8.344;2023-04-25T02:02:51;8.75;;;4.28;;
37971;SDS011;23794;48.234;8.344;2023-04-25T02:05:25;11.25;;;3.92;;
37971;SDS011;23794;48.234;8.344;2023-04-25T02:07:52;5.20;;;3.63;;
37971;SDS011;23794;48.234;8.344;2023-04-25T02:10:18;8.30;;;3.95;;
37971;SDS011;23794;48.234;8.344;2023-04-25T02:13:08;6.63;;;2.70;;
37971;SDS011;23794;48.234;8.344;2023-04-25T02:15:41;6.35;;;2.80;;
37971;SDS011;23794;48.234;8.344;2023-04-25T02:18:16;8.85;;;3.60;;
37971;SDS011;23794;48.234;8.344;2023-04-25T02:20:43;5.18;;;2.65;;
37971;SDS011;23794;48.234;8.344;2023-04-25T02:23:10;12.23;;;3.63;;
37971;SDS011;23794;48.234;8.344;2023-04-25T02:25:37;9.45;;;3.75;;
37971;SDS011;23794;48.234;8.344;2023-04-25T02:28:03;7.15;;;2.90;;
37971;SDS011;23794;48.234;8.344;2023-04-25T02:30:30;8.45;;;4.30;;
37971;SDS011;23794;48.234;8.344;2023-04-25T02:32:57;5.28;;;3.47;;
37971;SDS011;23794;48.234;8.344;2023-04-25T02:35:23;8.68;;;3.67;;
37971;SDS011;23794;48.234;8.344;2023-04-25T02:37:52;97.00;;;9.07;;
37971;SDS011;23794;48.234;8.344;2023-04-25T02:40:19;30.80;;;6.18;;
37971;SDS011;23794;48.234;8.344;2023-04-25T02:42:45;4.20;;;3.28;;
37971;SDS011;23794;48.234;8.344;2023-04-25T02:45:12;6.43;;;3.00;;
37971;SDS011;23794;48.234;8.344;2023-04-25T02:47:39;6.07;;;3.53;;
37971;SDS011;23794;48.234;8.344;2023-04-25T02:50:05;6.72;;;3.13;;
37971;SDS011;23794;48.234;8.344;2023-04-25T02:52:32;7.15;;;3.35;;
37971;SDS011;23794;48.234;8.344;2023-04-25T02:55:13;4.95;;;3.55;;
37971;SDS011;23794;48.234;8.344;2023-04-25T02:57:41;9.75;;;3.60;;
37971;SDS011;23794;48.234;8.344;2023-04-25T03:00:11;6.07;;;3.65;;
37971;SDS011;23794;48.234;8.344;2023-04-25T03:02:40;6.18;;;3.33;;
37971;SDS011;23794;48.234;8.344;2023-04-25T03:05:07;6.18;;;3.80;;
37971;SDS011;23794;48.234;8.344;2023-04-25T03:07:34;5.75;;;3.25;;
37971;SDS011;23794;48.234;8.344;2023-04-25T03:10:01;5.97;;;3.78;;
37971;SDS011;23794;48.234;8.344;2023-04-25T03:12:30;6.72;;;4.55;;
37971;SDS011;23794;48.234;8.344;2023-04-25T03:14:56;6.63;;;5.00;;
37971;SDS011;23794;48.234;8.344;2023-04-25T03:17:23;9.43;;;4.93;;
37971;SDS011;23794;48.234;8.344;2023-04-25T03:19:50;5.90;;;4.13;;
37971;SDS011;23794;48.234;8.344;2023-04-25T03:22:16;6.07;;;4.38;;
37971;SDS011;23794;48.234;8.344;2023-04-25T03:24:43;8.35;;;3.08;;
37971;SDS011;23794;48.234;8.344;2023-04-25T03:27:10;5.82;;;3.40;;
37971;SDS011;23794;48.234;8.344;2023-04-25T03:29:36;11.88;;;6.03;;
37971;SDS011;23794;48.234;8.344;2023-04-25T03:32:04;5.80;;;3.10;;
37971;SDS011;23794;48.234;8.344;2023-04-25T03:34:30;5.15;;;3.58;;
37971;SDS011;23794;48.234;8.344;2023-04-25T03:36:57;8.55;;;4.03;;
37971;SDS011;23794;48.234;8.344;2023-04-25T03:39:24;4.53;;;3.13;;
37971;SDS011;23794;48.234;8.344;2023-04-25T03:41:52;8.48;;;4.13;;
37971;SDS011;23794;48.234;8.344;2023-04-25T03:44:19;6.32;;;3.03;;
37971;SDS011;23794;48.234;8.344;2023-04-25T03:46:46;5.80;;;3.30;;
37971;SDS011;23794;48.234;8.344;2023-04-25T03:49:13;5.30;;;4.00;;
37971;SDS011;23794;48.234;8.344;2023-04-25T03:52:02;7.15;;;4.05;;
37971;SDS011;23794;48.234;8.344;2023-04-25T03:54:35;5.55;;;3.47;;
37971;SDS011;23794;48.234;8.344;2023-04-25T03:57:05;5.07;;;3.90;;
37971;SDS011;23794;48.234;8.344;2023-04-25T03:59:35;5.43;;;3.63;;
37971;SDS011;23794;48.234;8.344;2023-04-25T04:02:02;7.63;;;4.38;;
37971;SDS011;23794;48.234;8.344;2023-04-25T04:04:31;6.15;;;3.80;;
37971;SDS011;23794;48.234;8.344;2023-04-25T04:06:59;6.85;;;4.03;;
37971;SDS011;23794;48.234;8.344;2023-04-25T04:09:29;9.00;;;3.63;;
37971;SDS011;23794;48.234;8.344;2023-04-25T04:11:58;4.53;;;2.97;;
37971;SDS011;23794;48.234;8.344;2023-04-25T04:14:24;8.60;;;4.38;;
37971;SDS011;23794;48.234;8.344;2023-04-25T04:16:51;6.95;;;4.53;;
37971;SDS011;23794;48.234;8.344;2023-04-25T04:19:18;6.45;;;3.95;;
37971;SDS011;23794;48.234;8.344;2023-04-25T04:21:52;7.05;;;4.13;;
37971;SDS011;23794;48.234;8.344;2023-04-25T04:24:19;12.00;;;4.72;;
37971;SDS011;23794;48.234;8.344;2023-04-25T04:26:51;8.18;;;4.97;;
37971;SDS011;23794;48.234;8.344;2023-04-25T04:29:50;4.93;;;3.20;;
37971;SDS011;23794;48.234;8.344;2023-04-25T04:32:24;8.35;;;4.32;;
37971;SDS011;23794;48.234;8.344;2023-04-25T04:34:52;7.60;;;4.70;;
37971;SDS011;23794;48.234;8.344;2023-04-25T04:37:23;9.45;;;5.07;;
37971;SDS011;23794;48.234;8.344;2023-04-25T04:39:50;7.47;;;4.63;;
37971;SDS011;23794;48.234;8.344;2023-04-25T04:42:29;7.35;;;5.45;;
37971;SDS011;23794;48.234;8.344;2023-04-25T04:45:22;7.30;;;4.82;;
37971;SDS011;23794;48.234;8.344;2023-04-25T04:48:05;7.78;;;4.80;;
37971;SDS011;23794;48.234;8.344;2023-04-25T04:50:53;8.25;;;4.80;;
37971;SDS011;23794;48.234;8.344;2023-04-25T04:53:38;7.05;;;4.60;;
37971;SDS011;23794;48.234;8.344;2023-04-25T04:56:15;7.20;;;4.45;;
37971;SDS011;23794;48.234;8.344;2023-04-25T04:59:14;19.58;;;6.43;;
37971;SDS011;23794;48.234;8.344;2023-04-25T05:01:58;8.77;;;5.43;;
37971;SDS011;23794;48.234;8.344;2023-04-25T05:04:48;7.93;;;5.20;;
37971;SDS011;23794;48.234;8.344;2023-04-25T05:07:46;7.93;;;5.80;;
37971;SDS011;23794;48.234;8.344;2023-04-25T05:10:27;8.85;;;5.85;;
37971;SDS011;23794;48.234;8.344;2023-04-25T05:13:03;9.55;;;5.28;;
37971;SDS011;23794;48.234;8.344;2023-04-25T05:15:59;11.70;;;5.40;;
37971;SDS011;23794;48.234;8.344;2023-04-25T05:18:49;8.13;;;4.75;;
37971;SDS011;23794;48.234;8.344;2023-04-25T05:21:34;6.93;;;4.35;;
37971;SDS011;23794;48.234;8.344;2023-04-25T05:24:09;5.80;;;3.47;;
37971;SDS011;23794;48.234;8.344;2023-04-25T05:26:54;5.63;;;3.15;;
37971;SDS011;23794;48.234;8.344;2023-04-25T05:29:27;6.88;;;4.18;;
37971;SDS011;23794;48.234;8.344;2023-04-25T05:32:20;8.43;;;4.55;;
37971;SDS011;23794;48.234;8.344;2023-04-25T05:34:48;6.07;;;3.90;;
37971;SDS011;23794;48.234;8.344;2023-04-25T05:37:24;6.85;;;4.00;;
37971;SDS011;23794;48.234;8.344;2023-04-25T05:39:54;5.93;;;4.25;;
37971;SDS011;23794;48.234;8.344;2023-04-25T05:42:33;6.90;;;3.80;;
37971;SDS011;23794;48.234;8.344;2023-04-25T05:45:07;6.10;;;4.43;;
37971;SDS011;23794;48.234;8.344;2023-04-25T05:47:44;10.80;;;4.20;;
37971;SDS011;23794;48.234;8.344;2023-04-25T05:50:18;6.28;;;4.05;;
37971;SDS011;23794;48.234;8.344;2023-04-25T05:52:54;7.55;;;4.13;;
37971;SDS011;23794;48.234;8.344;2023-04-25T05:55:47;7.88;;;3.78;;
37971;SDS011;23794;48.234;8.344;2023-04-25T05:58:20;6.53;;;4.22;;
37971;SDS011;23794;48.234;8.344;2023-04-25T06:00:46;6.18;;;4.38;;
37971;SDS011;23794;48.234;8.344;2023-04-25T06:03:13;7.47;;;4.18;;
37971;SDS011;23794;48.234;8.344;2023-04-25T06:05:46;6.57;;;4.07;;
37971;SDS011;23794;48.234;8.344;2023-04-25T06:08:12;6.18;;;4.50;;
37971;SDS011;23794;48.234;8.344;2023-04-25T06:10:39;6.00;;;3.63;;
37971;SDS011;23794;48.234;8.344;2023-04-25T06:13:06;7.88;;;4.68;;
37971;SDS011;23794;48.234;8.344;2023-04-25T06:15:34;8.05;;;6.18;;
37971;SDS011;23794;48.234;8.344;2023-04-25T06:18:01;11.27;;;6.03;;
37971;SDS011;23794;48.234;8.344;2023-04-25T06:20:27;11.55;;;6.65;;
37971;SDS011;23794;48.234;8.344;2023-04-25T06:22:57;11.45;;;6.05;;
37971;SDS011;23794;48.234;8.344;2023-04-25T06:25:33;10.48;;;6.32;;
37971;SDS011;23794;48.234;8.344;2023-04-25T06:28:00;8.02;;;5.15;;
37971;SDS011;23794;48.234;8.344;2023-04-25T06:30:28;9.18;;;6.25;;
37971;SDS011;23794;48.234;8.344;2023-04-25T06:33:00;8.50;;;5.70;;
37971;SDS011;23794;48.234;8.344;2023-04-25T06:35:28;11.43;;;4.82;;
37971;SDS011;23794;48.234;8.344;2023-04-25T06:37:54;6.68;;;4.28;;
37971;SDS011;23794;48.234;8.344;2023-04-25T06:40:22;11.77;;;6.60;;
37971;SDS011;23794;48.234;8.344;2023-04-25T06:42:49;8.52;;;4.03;;
37971;SDS011;23794;48.234;8.344;2023-04-25T06:45:31;5.93;;;4.25;;
37971;SDS011;23794;48.234;8.344;2023-04-25T06:47:58;5.93;;;4.43;;
37971;SDS011;23794;48.234;8.344;2023-04-25T06:50:24;8.98;;;5.10;;
37971;SDS011;23794;48.234;8.344;2023-04-25T06:52:51;11.00;;;5.18;;
37971;SDS011;23794;48.234;8.344;2023-04-25T06:55:19;7.13;;;5.55;;
37971;SDS011;23794;48.234;8.344;2023-04-25T06:58:09;6.32;;;4.43;;
37971;SDS011;23794;48.234;8.344;2023-04-25T07:00:50;8.02;;;4.53;;
37971;SDS011;23794;48.234;8.344;2023-04-25T07:03:19;5.43;;;4.50;;
37971;SDS011;23794;48.234;8.344;2023-04-25T07:05:49;4.30;;;2.30;;
37971;SDS011;23794;48.234;8.344;2023-04-25T07:08:16;5.18;;;1.92;;
37971;SDS011;23794;48.234;8.344;2023-04-25T07:10:43;2.67;;;1.50;;
37971;SDS011;23794;48.234;8.344;2023-04-25T07:13:11;2.08;;;0.88;;
37971;SDS011;23794;48.234;8.344;2023-04-25T07:15:37;2.00;;;0.68;;
37971;SDS011;23794;48.234;8.344;2023-04-25T07:18:05;0.95;;;0.50;;
37971;SDS011;23794;48.234;8.344;2023-04-25T07:20:31;1.05;;;0.50;;
37971;SDS011;23794;48.234;8.344;2023-04-25T07:22:59;1.00;;;0.65;;
37971;SDS011;23794;48.234;8.344;2023-04-25T07:25:26;0.80;;;0.40;;
37971;SDS011;23794;48.234;8.344;2023-04-25T07:27:53;1.38;;;0.30;;
37971;SDS011;23794;48.234;8.344;2023-04-25T07:30:20;1.25;;;0.52;;
37971;SDS011;23794;48.234;8.344;2023-04-25T07:32:47;0.80;;;0.30;;
37971;SDS011;23794;48.234;8.344;2023-04-25T07:35:13;1.65;;;0.52;;
37971;SDS011;23794;48.234;8.344;2023-04-25T07:37:40;0.68;;;0.38;;
37971;SDS011;23794;48.234;8.344;2023-04-25T07:40:11;0.57;;;0.28;;
37971;SDS011;23794;48.234;8.344;2023-04-25T07:42:43;0.90;;;0.50;;
37971;SDS011;23794;48.234;8.344;2023-04-25T07:45:13;0.20;;;0.20;;
37971;SDS011;23794;48.234;8.344;2023-04-25T07:47:39;0.25;;;0.20;;
37971;SDS011;23794;48.234;8.344;2023-04-25T07:50:07;0.35;;;0.20;;
37971;SDS011;23794;48.234;8.344;2023-04-25T07:52:34;0.30;;;0.20;;
37971;SDS011;23794;48.234;8.344;2023-04-25T07:55:11;0.52;;;0.25;;
37971;SDS011;23794;48.234;8.344;2023-04-25T07:57:55;0.63;;;0.10;;
37971;SDS011;23794;48.234;8.344;2023-04-25T08:00:22;1.40;;;0.20;;
37971;SDS011;23794;48.234;8.344;2023-04-25T08:02:56;0.47;;;0.20;;
37971;SDS011;23794;48.234;8.344;2023-04-25T08:05:24;0.55;;;0.20;;
37971;SDS011;23794;48.234;8.344;2023-04-25T08:07:58;0.17;;;0.10;;
37971;SDS011;23794;48.234;8.344;2023-04-25T08:10:26;0.20;;;0.20;;
37971;SDS011;23794;48.234;8.344;2023-04-25T08:12:53;0.80;;;0.50;;
37971;SDS011;23794;48.234;8.344;2023-04-25T08:15:20;2.15;;;0.93;;
37971;SDS011;23794;48.234;8.344;2023-04-25T08:17:46;0.45;;;0.40;;
37971;SDS011;23794;48.234;8.344;2023-04-25T08:20:13;0.22;;;0.20;;
37971;SDS011;23794;48.234;8.344;2023-04-25T08:22:43;0.35;;;0.17;;
37971;SDS011;23794;48.234;8.344;2023-04-25T08:27:52;0.10;;;0.10;;
37971;SDS011;23794;48.234;8.344;2023-04-25T08:30:21;0.10;;;0.10;;
37971;SDS011;23794;48.234;8.344;2023-04-25T08:32:49;0.32;;;0.28;;
37971;SDS011;23794;48.234;8.344;2023-04-25T08:35:29;0.65;;;0.30;;
37971;SDS011;23794;48.234;8.344;2023-04-25T08:37:56;0.50;;;0.20;;
37971;SDS011;23794;48.234;8.344;2023-04-25T08:40:23;0.40;;;0.20;;
37971;SDS011;23794;48.234;8.344;2023-04-25T08:42:59;0.20;;;0.10;;
37971;SDS011;23794;48.234;8.344;2023-04-25T08:45:29;0.22;;;0.10;;
37971;SDS011;23794;48.234;8.344;2023-04-25T08:47:58;0.10;;;0.10;;
37971;SDS011;23794;48.234;8.344;2023-04-25T08:50:27;0.20;;;0.20;;
37971;SDS011;23794;48.234;8.344;2023-04-25T08:52:56;0.15;;;0.10;;
37971;SDS011;23794;48.234;8.344;2023-04-25T08:55:27;0.52;;;0.15;;
37971;SDS011;23794;48.234;8.344;2023-04-25T08:57:57;0.38;;;0.10;;
37971;SDS011;23794;48.234;8.344;2023-04-25T09:00:26;0.60;;;0.30;;
37971;SDS011;23794;48.234;8.344;2023-04-25T09:02:55;0.13;;;0.10;;
37971;SDS011;23794;48.234;8.344;2023-04-25T09:05:24;2.50;;;0.60;;
37971;SDS011;23794;48.234;8.344;2023-04-25T09:07:52;2.53;;;0.73;;
37971;SDS011;23794;48.234;8.344;2023-04-25T09:10:18;1.52;;;0.57;;
37971;SDS011;23794;48.234;8.344;2023-04-25T09:13:01;1.10;;;0.40;;
37971;SDS011;23794;48.234;8.344;2023-04-25T09:16:01;2.20;;;1.00;;
37971;SDS011;23794;48.234;8.344;2023-04-25T09:18:47;0.43;;;0.20;;
37971;SDS011;23794;48.234;8.344;2023-04-25T09:21:15;1.17;;;0.28;;
37971;SDS011;23794;48.234;8.344;2023-04-25T09:23:45;0.63;;;0.20;;
37971;SDS011;23794;48.234;8.344;2023-04-25T09:26:17;0.20;;;0.20;;
37971;SDS011;23794;48.234;8.344;2023-04-25T09:28:46;0.70;;;0.22;;
37971;SDS011;23794;48.234;8.344;2023-04-25T09:31:22;1.40;;;0.30;;
37971;SDS011;23794;48.234;8.344;2023-04-25T09:33:59;1.25;;;0.63;;
37971;SDS011;23794;48.234;8.344;2023-04-25T09:36:39;1.75;;;0.40;;
37971;SDS011;23794;48.234;8.344;2023-04-25T09:39:21;1.80;;;0.63;;
37971;SDS011;23794;48.234;8.344;2023-04-25T09:42:02;0.73;;;0.30;;
37971;SDS011;23794;48.234;8.344;2023-04-25T09:44:30;1.85;;;0.50;;
37971;SDS011;23794;48.234;8.344;2023-04-25T09:46:57;0.30;;;0.30;;
37971;SDS011;23794;48.234;8.344;2023-04-25T09:49:28;0.40;;;0.10;;
37971;SDS011;23794;48.234;8.344;2023-04-25T09:52:04;0.22;;;0.20;;
37971;SDS011;23794;48.234;8.344;2023-04-25T09:54:47;0.52;;;0.30;;
37971;SDS011;23794;48.234;8.344;2023-04-25T09:57:22;0.40;;;0.25;;
37971;SDS011;23794;48.234;8.344;2023-04-25T09:59:54;1.30;;;0.50;;
37971;SDS011;23794;48.234;8.344;2023-04-25T10:02:24;0.77;;;0.43;;
37971;SDS011;23794;48.234;8.344;2023-04-25T10:04:56;0.50;;;0.28;;
37971;SDS011;23794;48.234;8.344;2023-04-25T10:07:29;0.75;;;0.40;;
37971;SDS011;23794;48.234;8.344;2023-04-25T10:10:03;0.63;;;0.30;;
37971;SDS011;23794;48.234;8.344;2023-04-25T10:12:32;0.20;;;0.20;;
37971;SDS011;23794;48.234;8.344;2023-04-25T10:14:59;0.30;;;0.20;;
37971;SDS011;23794;48.234;8.344;2023-04-25T10:17:27;0.30;;;0.25;;
37971;SDS011;23794;48.234;8.344;2023-04-25T10:19:56;1.20;;;0.30;;
37971;SDS011;23794;48.234;8.344;2023-04-25T10:22:26;0.28;;;0.20;;
37971;SDS011;23794;48.234;8.344;2023-04-25T10:24:57;0.35;;;0.20;;
37971;SDS011;23794;48.234;8.344;2023-04-25T10:27:26;0.93;;;0.43;;
37971;SDS011;23794;48.234;8.344;2023-04-25T10:32:49;0.32;;;0.20;;
37971;SDS011;23794;48.234;8.344;2023-04-25T10:35:17;0.20;;;0.17;;
37971;SDS011;23794;48.234;8.344;2023-04-25T10:40:24;0.70;;;0.30;;
37971;SDS011;23794;48.234;8.344;2023-04-25T10:42:54;0.75;;;0.43;;
37971;SDS011;23794;48.234;8.344;2023-04-25T10:45:22;0.20;;;0.20;;
37971;SDS011;23794;48.234;8.344;2023-04-25T10:47:48;0.30;;;0.20;;
37971;SDS011;23794;48.234;8.344;2023-04-25T10:50:15;0.10;;;0.10;;
37971;SDS011;23794;48.234;8.344;2023-04-25T10:52:44;0.20;;;0.10;;
37971;SDS011;23794;48.234;8.344;2023-04-25T10:55:12;0.20;;;0.17;;
37971;SDS011;23794;48.234;8.344;2023-04-25T10:57:45;0.20;;;0.20;;
37971;SDS011;23794;48.234;8.344;2023-04-25T11:00:16;0.40;;;0.30;;
37971;SDS011;23794;48.234;8.344;2023-04-25T11:02:45;1.23;;;0.13;;
37971;SDS011;23794;48.234;8.344;2023-04-25T11:08:03;0.55;;;0.30;;
37971;SDS011;23794;48.234;8.344;2023-04-25T11:10:37;0.75;;;0.55;;
37971;SDS011;23794;48.234;8.344;2023-04-25T11:13:06;1.30;;;0.70;;
37971;SDS011;23794;48.234;8.344;2023-04-25T11:15:32;0.68;;;0.60;;
37971;SDS011;23794;48.234;8.344;2023-04-25T11:17:59;1.05;;;0.68;;
37971;SDS011;23794;48.234;8.344;2023-04-25T11:20:27;0.65;;;0.50;;
37971;SDS011;23794;48.234;8.344;2023-04-25T11:22:57;1.25;;;0.70;;
37971;SDS011;23794;48.234;8.344;2023-04-25T11:25:26;1.40;;;0.95;;
37971;SDS011;23794;48.234;8.344;2023-04-25T11:27:54;1.25;;;0.90;;
37971;SDS011;23794;48.234;8.344;2023-04-25T11:30:23;1.23;;;0.88;;
37971;SDS011;23794;48.234;8.344;2023-04-25T11:32:52;1.55;;;1.10;;
37971;SDS011;23794;48.234;8.344;2023-04-25T11:35:19;2.17;;;1.13;;
37971;SDS011;23794;48.234;8.344;2023-04-25T11:37:49;2.72;;;1.27;;
37971;SDS011;23794;48.234;8.344;2023-04-25T11:40:16;2.72;;;1.27;;
37971;SDS011;23794;48.234;8.344;2023-04-25T11:42:44;2.28;;;1.75;;
37971;SDS011;23794;48.234;8.344;2023-04-25T11:45:11;1.23;;;1.10;;
37971;SDS011;23794;48.234;8.344;2023-04-25T11:47:39;2.00;;;1.48;;
37971;SDS011;23794;48.234;8.344;2023-04-25T11:50:06;2.03;;;1.25;;
37971;SDS011;23794;48.234;8.344;2023-04-25T11:52:38;1.67;;;1.40;;
37971;SDS011;23794;48.234;8.344;2023-04-25T11:55:09;1.23;;;1.00;;
37971;SDS011;23794;48.234;8.344;2023-04-25T11:57:38;2.78;;;1.20;;
37971;SDS011;23794;48.234;8.344;2023-04-25T12:02:43;1.80;;;1.30;;
37971;SDS011;23794;48.234;8.344;2023-04-25T12:05:11;1.50;;;1.40;;
37971;SDS011;23794;48.234;8.344;2023-04-25T12:07:57;1.40;;;1.10;;
37971;SDS011;23794;48.234;8.344;2023-04-25T12:10:24;1.55;;;1.10;;
37971;SDS011;23794;48.234;8.344;2023-04-25T12:12:51;1.63;;;1.35;;
37971;SDS011;23794;48.234;8.344;2023-04-25T12:15:23;1.20;;;1.10;;
37971;SDS011;23794;48.234;8.344;2023-04-25T12:17:52;2.08;;;1.40;;
37971;SDS011;23794;48.234;8.344;2023-04-25T12:20:21;1.70;;;1.20;;
37971;SDS011;23794;48.234;8.344;2023-04-25T12:22:52;2.95;;;1.30;;
37971;SDS011;23794;48.234;8.344;2023-04-25T12:25:38;1.77;;;1.10;;
37971;SDS011;23794;48.234;8.344;2023-04-25T12:28:09;1.55;;;1.10;;
37971;SDS011;23794;48.234;8.344;2023-04-25T12:30:55;1.58;;;1.20;;
37971;SDS011;23794;48.234;8.344;2023-04-25T12:33:32;1.40;;;1.00;;
37971;SDS011;23794;48.234;8.344;2023-04-25T12:36:01;2.15;;;0.90;;
37971;SDS011;23794;48.234;8.344;2023-04-25T12:38:38;1.33;;;1.00;;
37971;SDS011;23794;48.234;8.344;2023-04-25T12:41:06;2.85;;;1.73;;
37971;SDS011;23794;48.234;8.344;2023-04-25T12:43:33;2.90;;;1.80;;
37971;SDS011;23794;48.234;8.344;2023-04-25T12:46:00;2.63;;;1.30;;
37971;SDS011;23794;48.234;8.344;2023-04-25T12:48:26;1.67;;;1.20;;
37971;SDS011;23794;48.234;8.344;2023-04-25T12:50:53;1.75;;;1.23;;
37971;SDS011;23794;48.234;8.344;2023-04-25T12:53:20;1.52;;;1.20;;
37971;SDS011;23794;48.234;8.344;2023-04-25T12:55:48;1.88;;;1.08;;
37971;SDS011;23794;48.234;8.344;2023-04-25T12:58:15;2.08;;;1.10;;
37971;SDS011;23794;48.234;8.344;2023-04-25T13:00:44;1.15;;;0.90;;
37971;SDS011;23794;48.234;8.344;2023-04-25T13:03:11;1.20;;;0.73;;
37971;SDS011;23794;48.234;8.344;2023-04-25T13:05:39;2.17;;;0.80;;
37971;SDS011;23794;48.234;8.344;2023-04-25T13:08:05;0.82;;;0.70;;
37971;SDS011;23794;48.234;8.344;2023-04-25T13:10:32;4.57;;;0.70;;
37971;SDS011;23794;48.234;8.344;2023-04-25T13:13:00;1.00;;;0.70;;
37971;SDS011;23794;48.234;8.344;2023-04-25T13:15:27;1.33;;;0.88;;
37971;SDS011;23794;48.234;8.344;2023-04-25T13:17:54;1.95;;;1.00;;
37971;SDS011;23794;48.234;8.344;2023-04-25T13:20:21;2.30;;;0.70;;
37971;SDS011;23794;48.234;8.344;2023-04-25T13:22:48;0.90;;;0.75;;
37971;SDS011;23794;48.234;8.344;2023-04-25T13:25:15;1.70;;;0.80;;
37971;SDS011;23794;48.234;8.344;2023-04-25T13:27:42;0.80;;;0.50;;
37971;SDS011;23794;48.234;8.344;2023-04-25T13:30:10;0.95;;;0.68;;
37971;SDS011;23794;48.234;8.344;2023-04-25T13:32:37;1.63;;;0.70;;
37971;SDS011;23794;48.234;8.344;2023-04-25T13:35:05;1.00;;;0.40;;
37971;SDS011;23794;48.234;8.344;2023-04-25T13:40:03;2.20;;;0.80;;
37971;SDS011;23794;48.234;8.344;2023-04-25T13:42:32;1.90;;;0.85;;
37971;SDS011;23794;48.234;8.344;2023-04-25T13:44:59;3.85;;;0.80;;
37971;SDS011;23794;48.234;8.344;2023-04-25T13:47:26;1.23;;;0.80;;
37971;SDS011;23794;48.234;8.344;2023-04-25T13:49:57;1.88;;;0.80;;
37971;SDS011;23794;48.234;8.344;2023-04-25T13:52:23;2.05;;;1.13;;
37971;SDS011;23794;48.234;8.344;2023-04-25T13:54:50;1.60;;;0.90;;
37971;SDS011;23794;48.234;8.344;2023-04-25T13:57:17;1.42;;;0.88;;
37971;SDS011;23794;48.234;8.344;2023-04-25T13:59:44;1.58;;;0.80;;
37971;SDS011;23794;48.234;8.344;2023-04-25T14:02:12;0.98;;;0.57;;
37971;SDS011;23794;48.234;8.344;2023-04-25T14:04:39;1.30;;;0.60;;
37971;SDS011;23794;48.234;8.344;2023-04-25T14:07:06;0.50;;;0.50;;
37971;SDS011;23794;48.234;8.344;2023-04-25T14:09:33;1.00;;;0.70;;
37971;SDS011;23794;48.234;8.344;2023-04-25T14:12:00;1.67;;;0.80;;
37971;SDS011;23794;48.234;8.344;2023-04-25T14:14:28;1.70;;;0.73;;
37971;SDS011;23794;48.234;8.344;2023-04-25T14:16:54;1.02;;;0.60;;
37971;SDS011;23794;48.234;8.344;2023-04-25T14:19:23;1.00;;;0.65;;
37971;SDS011;23794;48.234;8.344;2023-04-25T14:21:50;1.98;;;0.70;;
37971;SDS011;23794;48.234;8.344;2023-04-25T14:24:16;1.55;;;0.50;;
37971;SDS011;23794;48.234;8.344;2023-04-25T14:26:43;1.67;;;0.60;;
37971;SDS011;23794;48.234;8.344;2023-04-25T14:29:10;1.13;;;0.52;;
37971;SDS011;23794;48.234;8.344;2023-04-25T14:31:38;0.85;;;0.60;;
37971;SDS011;23794;48.234;8.344;2023-04-25T14:34:06;1.63;;;0.68;;
37971;SDS011;23794;48.234;8.344;2023-04-25T14:36:34;2.60;;;0.65;;
37971;SDS011;23794;48.234;8.344;2023-04-25T14:39:02;1.10;;;0.75;;
37971;SDS011;23794;48.234;8.344;2023-04-25T14:41:31;2.28;;;1.60;;
37971;SDS011;23794;48.234;8.344;2023-04-25T14:43:58;2.38;;;1.10;;
37971;SDS011;23794;48.234;8.344;2023-04-25T14:46:24;2.53;;;1.88;;
37971;SDS011;23794;48.234;8.344;2023-04-25T14:48:51;3.30;;;1.58;;
37971;SDS011;23794;48.234;8.344;2023-04-25T14:51:19;3.42;;;1.60;;
37971;SDS011;23794;48.234;8.344;2023-04-25T14:53:46;4.80;;;3.90;;
37971;SDS011;23794;48.234;8.344;2023-04-25T14:56:13;2.40;;;1.23;;
37971;SDS011;23794;48.234;8.344;2023-04-25T14:58:40;1.90;;;0.93;;
37971;SDS011;23794;48.234;8.344;2023-04-25T15:01:06;1.67;;;1.02;;
37971;SDS011;23794;48.234;8.344;2023-04-25T15:03:34;2.78;;;1.10;;
37971;SDS011;23794;48.234;8.344;2023-04-25T15:06:01;3.30;;;1.60;;
37971;SDS011;23794;48.234;8.344;2023-04-25T15:08:28;2.40;;;0.90;;
37971;SDS011;23794;48.234;8.344;2023-04-25T15:10:54;1.52;;;0.80;;
37971;SDS011;23794;48.234;8.344;2023-04-25T15:13:21;4.47;;;1.83;;
37971;SDS011;23794;48.234;8.344;2023-04-25T15:15:48;4.38;;;1.98;;
37971;SDS011;23794;48.234;8.344;2023-04-25T15:18:18;2.75;;;1.08;;
37971;SDS011;23794;48.234;8.344;2023-04-25T15:20:48;2.30;;;1.30;;
37971;SDS011;23794;48.234;8.344;2023-04-25T15:23:17;2.00;;;1.33;;